Terminal Aerodrome Forecast
Issued by NWS Portland, ME

Home | Current Version | Previous Version | Text Only | Print | Product List | Glossary On
Versions: 1 2 3 4 5 6 7 8 9 10 11 12 13 14 15 16 17 18 19
000
FTUS41 KGYX 280058 AAA
TAFCON
TAF AMD
KCON 280058Z 2801/2824 22010KT P6SM SCT050 SCT100
      TEMPO 2801/2803 -SHRA BKN050
     FM280300 19009KT P6SM OVC100
     FM280600 18008KT 6SM BR OVC015
     FM281300 22011KT P6SM BKN250
     FM281900 27010G17KT P6SM BKN100 PROB30 2820/2822 P6SM -TSRA
      BKN050CB=

USA.gov is the U.S. government's official web portal to all federal, state and local government web resources and services.